Aérodrome :







RETROUVEZ-NOUS SUR...

 
LOGIN :

S'inscrire | Disclaimer

   EN    FR    IT 

 









Légende :    VFR   VFR Marginal   IFR   IFR Intensif   IFR Très Intensif
Visi : 
Plafond : 
>= 8 km
>= 3000ft
5 à 8 km
1000 à 3000 ft
1500m à 5 km
500 à 1000 ft
800 à 1500m
200 à 500 ft
< 800m
< 200 ft
Symboles :   Orages  Brouillard  Fortes neiges  Fortes précipitations  Vent > 20 kt






- Altitude de l'aérodrome : 38 ft
- Code IATA : YMH


CYMH - Mary's Harbour

DERNIER METAR :
  • 020700Z AUTO 35004KT 3/8SM -RA FG VV003 00/00 A3039 RMK SLP292

METARs EXPIRÉS :
  • 020600Z AUTO 35003KT 3/8SM -RA FG VV003 00/M00 A3038 RMK SLP291
  • 020500Z AUTO 35004KT 3/8SM -RA FG VV003 00/00 A3038 RMK SLP291
  • 020400Z AUTO 35003KT 1/4SM -RA FG VV002 00/M00 A3038 RMK SLP289

Prévision TAF périmée.



MET'MAP, la Météo Aéronautique d'un coup d'oeil ! - Copyright ORBIFLY Décembre 2007 - Disclaimer

ORBIFLY MET'MAP TEAM :

Programmation & Développement : Alexandra Zaïnal
Sur une idée originale de : Baudouin d'Aumeries
Assistance à la programmation : Marc-Olivier Méhu
Soutien technique & logistique : Manuel Goepfert

Contact : metmap@orbifly.com




SOURCES & CREDITS :

   NOAA